CheckWX is a tool to help pilots better visualize weather data.  It is not intended as a substitute for an official pre-flight weather briefing.

02:09:25 UTC

GFLL TAF
Lungi International Airport
Freetown, Sierra Leone
TAF GFLL 181700Z 1818/1924 31009KT 7000 HZ NSC TEMPO 1820/1924 30006KT FEW012 TEMPO 1906/1910 VRB02KT 5000 BR FEW010 BECMG 1911/1913 26006KT 7000 HZ NSC TEMPO 1914/1919 30008KT

Mar-18@
18:00 UTC

Mar-18 @ 18:00 UTC

Mar-19@
11:00 UTC

Mar-19 @ 11:00 UTC

TAF GFLL 181700Z 1818/1924 31009KT 7000 HZ NSC
Wind
  • 310° at 9 KTS
Conditions
Haze
Cloud Levels
  • No significant clouds

Mar-18@
20:00 UTC

Mar-18 @ 20:00 UTC

Mar-20@
00:00 UTC

Mar-20 @ 00:00 UTC

TEMPO 1820/1924 30006KT FEW012

Temporary

Temporary Changes expected for less than half the time period

Wind
  • 300° at 6 KTS
Cloud Levels
  • Few at 1,200' AGL

Mar-19@
06:00 UTC

Mar-19 @ 06:00 UTC

Mar-19@
10:00 UTC

Mar-19 @ 10:00 UTC

TEMPO 1906/1910 VRB02KT 5000 BR FEW010

Temporary

Temporary Changes expected for less than half the time period

Wind
  • Variable at 2 KTS
Conditions
Mist
Cloud Levels
  • Few at 1,000' AGL

Mar-19@
11:00 UTC

Mar-19 @ 11:00 UTC

Mar-20@
00:00 UTC

Mar-20 @ 00:00 UTC

BECMG 1911/1913 26006KT 7000 HZ NSC

Becoming

Becoming Conditions expected by Tue, Mar 19, 2019 @ 13:00 UTC

Wind
  • 260° at 6 KTS
Conditions
Haze
Cloud Levels
  • No significant clouds

Mar-19@
14:00 UTC

Mar-19 @ 14:00 UTC

Mar-19@
19:00 UTC

Mar-19 @ 19:00 UTC

TEMPO 1914/1919 30008KT

Temporary

Temporary Changes expected for less than half the time period

Wind
  • 300° at 8 KTS